ARG1522 SAEZ-SACO
Flight info
| Callsign | ARG1522 |
|---|---|
| Flight time | N/A |
| Altitude | 30000 |
| Route | ATOVO3A ATOVO UW5 ASISA ASISA1U |
| Aircraft | B738/M-SDE2E3FGHIRWXY/LB1 |
Departure
| Time | 2026-05-01 15:22 |
|---|---|
| Airport | Ezeiza International Airport - Ministro Pistarini (SAEZ) |
Arrival
| Time | N/A |
|---|---|
| Airport | Ingeniero Aeronáutico Ambrosio L.V. Taravella International Airport (SACO) |
| Time | Latitude | Longitude | Altitude | Speed | Heading |
|---|---|---|---|---|---|
| 2026-05-01 14:42 | -34.81461 | -58.53754 | 72 ft | 0 kts | 324° |
| 2026-05-01 15:07 | -34.81477 | -58.53739 | 67 ft | 4 kts | 321° |
| 2026-05-01 15:08 | -34.81498 | -58.53718 | 62 ft | 4 kts | 316° |
| 2026-05-01 15:08 | -34.81516 | -58.53694 | 62 ft | 4 kts | 304° |
| 2026-05-01 15:08 | -34.81526 | -58.53667 | 67 ft | 4 kts | 262° |
| 2026-05-01 15:08 | -34.81520 | -58.53653 | 64 ft | 1 kts | 219° |
| 2026-05-01 15:09 | -34.81519 | -58.53651 | 64 ft | 2 kts | 219° |
| 2026-05-01 15:09 | -34.81518 | -58.53651 | 64 ft | 0 kts | 219° |
| 2026-05-01 15:14 | -34.81519 | -58.53652 | 64 ft | 1 kts | 219° |
| 2026-05-01 15:15 | -34.81645 | -58.53789 | 68 ft | 18 kts | 222° |
| 2026-05-01 15:15 | -34.81777 | -58.54023 | 71 ft | 16 kts | 249° |
| 2026-05-01 15:16 | -34.81777 | -58.54242 | 65 ft | 15 kts | 280° |
| 2026-05-01 15:16 | -34.81751 | -58.54490 | 65 ft | 14 kts | 266° |
| 2026-05-01 15:17 | -34.81774 | -58.54716 | 70 ft | 13 kts | 263° |
| 2026-05-01 15:18 | -34.81726 | -58.55025 | 72 ft | 12 kts | 283° |
| 2026-05-01 15:18 | -34.81707 | -58.55123 | 63 ft | 12 kts | 283° |
| 2026-05-01 15:19 | -34.81709 | -58.55316 | 65 ft | 5 kts | 231° |
| 2026-05-01 15:19 | -34.81750 | -58.55349 | 71 ft | 2 kts | 187° |
| 2026-05-01 15:19 | -34.81764 | -58.55351 | 64 ft | 2 kts | 187° |
| 2026-05-01 15:20 | -34.81775 | -58.55352 | 68 ft | 0 kts | 182° |
| 2026-05-01 15:21 | -34.81797 | -58.55347 | 66 ft | 9 kts | 162° |
| 2026-05-01 15:21 | -34.81883 | -58.55322 | 66 ft | 12 kts | 182° |
| 2026-05-01 15:21 | -34.81916 | -58.55283 | 72 ft | 5 kts | 105° |
| 2026-05-01 15:21 | -34.81922 | -58.55255 | 72 ft | 16 kts | 102° |
| 2026-05-01 15:22 | -34.82177 | -58.53835 | 72 ft | 149 kts | 101° |
| 2026-05-01 15:22 | -34.82439 | -58.52405 | 221 ft | 188 kts | 101° |
| 2026-05-01 15:22 | -34.82800 | -58.50844 | 826 ft | 205 kts | 113° |
| 2026-05-01 15:23 | -34.83829 | -58.49697 | 1643 ft | 198 kts | 167° |
| 2026-05-01 15:23 | -34.85150 | -58.49175 | 2388 ft | 214 kts | 149° |
| 2026-05-01 15:23 | -34.86140 | -58.47702 | 2652 ft | 239 kts | 120° |
| 2026-05-01 15:23 | -34.86913 | -58.45811 | 3060 ft | 257 kts | 112° |
| 2026-05-01 15:24 | -34.87538 | -58.43753 | 3471 ft | 272 kts | 112° |
| 2026-05-01 15:24 | -34.88369 | -58.41609 | 4019 ft | 286 kts | 123° |
| 2026-05-01 15:24 | -34.89732 | -58.39901 | 5011 ft | 280 kts | 151° |
| 2026-05-01 15:24 | -34.91570 | -58.39188 | 5754 ft | 280 kts | 182° |
| 2026-05-01 15:25 | -34.93477 | -58.39574 | 6461 ft | 279 kts | 206° |
| 2026-05-01 15:25 | -34.95167 | -58.40696 | 7214 ft | 275 kts | 225° |
| 2026-05-01 15:25 | -34.96416 | -58.42384 | 8009 ft | 270 kts | 241° |
| 2026-05-01 15:25 | -34.97187 | -58.44443 | 8797 ft | 264 kts | 262° |
| 2026-05-01 15:26 | -34.97419 | -58.46648 | 9632 ft | 261 kts | 274° |
| 2026-05-01 15:26 | -34.97256 | -58.48855 | 10300 ft | 265 kts | 285° |
| 2026-05-01 15:26 | -34.96669 | -58.51042 | 10483 ft | 287 kts | 295° |
| 2026-05-01 15:26 | -34.95673 | -58.53269 | 10660 ft | 310 kts | 304° |
| 2026-05-01 15:27 | -34.94187 | -58.55300 | 10862 ft | 331 kts | 320° |
| 2026-05-01 15:27 | -34.92113 | -58.56628 | 11367 ft | 346 kts | 341° |
| 2026-05-01 15:27 | -34.89678 | -58.56889 | 12012 ft | 359 kts | 0° |
| 2026-05-01 15:28 | -34.84836 | -58.54912 | 13223 ft | 378 kts | 19° |
| 2026-05-01 15:28 | -34.82376 | -58.53740 | 13742 ft | 379 kts | 8° |
| 2026-05-01 15:28 | -34.79777 | -58.53525 | 14341 ft | 371 kts | 354° |
| 2026-05-01 15:29 | -34.74596 | -58.53784 | 15517 ft | 376 kts | 353° |
| 2026-05-01 15:29 | -34.71957 | -58.53928 | 16093 ft | 379 kts | 353° |
| 2026-05-01 15:29 | -34.66657 | -58.54189 | 17256 ft | 384 kts | 353° |
| 2026-05-01 15:30 | -34.61304 | -58.54425 | 18352 ft | 389 kts | 353° |
| 2026-05-01 15:31 | -34.50692 | -58.54872 | 20270 ft | 397 kts | 353° |
| 2026-05-01 15:31 | -34.45163 | -58.55103 | 21243 ft | 401 kts | 352° |
| 2026-05-01 15:32 | -34.39541 | -58.55339 | 22162 ft | 406 kts | 352° |
| 2026-05-01 15:32 | -34.33890 | -58.55575 | 23030 ft | 410 kts | 352° |
| 2026-05-01 15:33 | -34.25248 | -58.55935 | 24141 ft | 417 kts | 352° |
| 2026-05-01 15:34 | -34.17388 | -58.59193 | 25135 ft | 401 kts | 314° |